createdAt,value
2018-07-08T00:06:14.320Z,53.30
2018-07-08T01:09:03.255Z,55.00
2018-07-08T01:24:40.378Z,55.70
2018-07-08T01:26:20.486Z,55.60
2018-07-08T01:27:41.133Z,55.90
2018-07-08T01:29:16.427Z,56.00
2018-07-08T01:49:44.995Z,56.90
2018-07-08T01:55:22.752Z,57.70
2018-07-08T14:50:25.408Z,44.80
2018-07-08T14:51:31.103Z,29.90
2018-07-08T14:52:37.516Z,29.20
2018-07-08T14:53:47.847Z,29.40
2018-07-08T14:54:53.820Z,30.00
2018-07-08T14:55:59.110Z,29.50
2018-07-08T14:57:05.335Z,29.60
2018-07-08T14:58:10.822Z,30.00
2018-07-08T14:59:15.788Z,30.00
2018-07-08T15:00:20.634Z,30.30
2018-07-08T15:01:26.620Z,30.40
2018-07-08T15:02:34.567Z,30.80
2018-07-08T15:03:39.820Z,31.10
2018-07-08T15:04:44.671Z,31.00
2018-07-08T15:05:49.636Z,31.60
2018-07-08T15:06:54.196Z,31.50
2018-07-08T15:08:00.222Z,31.70
2018-07-08T15:09:07.980Z,31.70
2018-07-08T15:11:32.678Z,31.90
2018-07-08T15:12:38.708Z,32.20
2018-07-08T15:13:46.360Z,32.30
2018-07-08T15:14:51.339Z,32.80
2018-07-08T15:15:56.181Z,32.60
2018-07-08T15:17:00.997Z,32.10
2018-07-08T15:18:06.466Z,31.80
2018-07-08T15:19:11.740Z,32.00
2018-07-08T15:20:17.641Z,32.10
2018-07-08T15:21:25.616Z,32.10
2018-07-08T15:22:33.430Z,32.30
2018-07-08T15:23:40.107Z,32.70
2018-07-08T15:24:45.698Z,32.90
2018-07-08T15:25:50.674Z,32.80
2018-07-08T15:26:56.112Z,32.60
2018-07-08T15:28:01.907Z,32.40
2018-07-08T15:29:07.644Z,32.60
2018-07-08T15:30:12.833Z,33.00
2018-07-08T15:31:20.728Z,33.00
2018-07-08T15:32:25.705Z,33.20
2018-07-08T15:33:31.204Z,32.20
2018-07-08T15:34:36.638Z,32.60
2018-07-08T15:35:42.193Z,32.80
2018-07-08T15:36:47.465Z,33.00
2018-07-08T15:39:00.218Z,32.90
2018-07-08T15:40:05.789Z,32.80
2018-07-08T15:41:11.486Z,32.90
2018-07-08T15:42:16.375Z,32.90
2018-07-08T15:43:23.105Z,33.00
2018-07-08T15:44:29.084Z,31.90
2018-07-08T15:45:34.648Z,32.10
2018-07-08T15:46:41.422Z,32.70
2018-07-08T15:47:50.696Z,32.90
2018-07-08T15:48:55.592Z,33.00
2018-07-08T15:50:01.374Z,33.00
2018-07-08T15:51:09.195Z,33.40
2018-07-08T15:52:19.888Z,33.70
2018-07-08T15:53:28.313Z,34.00
2018-07-08T15:54:33.713Z,34.60
2018-07-08T15:55:38.766Z,33.80
2018-07-08T15:56:45.320Z,33.80
2018-07-08T15:59:11.219Z,33.80
2018-07-08T16:00:21.229Z,33.90
2018-07-08T16:01:30.298Z,33.90
2018-07-08T16:02:47.065Z,34.70
2018-07-08T16:03:51.808Z,33.30
2018-07-08T16:04:57.024Z,33.50
2018-07-08T16:06:03.482Z,33.80
2018-07-08T16:07:09.851Z,33.30
2018-07-08T16:08:15.692Z,33.50
2018-07-08T16:09:22.666Z,33.30
2018-07-08T16:10:28.475Z,33.70
2018-07-08T16:11:33.633Z,33.30
2018-07-08T16:12:39.173Z,34.60
2018-07-08T16:13:44.196Z,34.00
2018-07-08T16:14:50.392Z,34.00
2018-07-08T16:15:55.220Z,34.10
2018-07-08T16:16:59.729Z,33.80
2018-07-08T16:18:04.271Z,33.70
2018-07-08T16:19:08.902Z,34.20
2018-07-08T16:20:13.642Z,34.10
2018-07-08T16:21:20.745Z,34.10
2018-07-08T16:22:27.245Z,34.40
2018-07-08T16:23:32.197Z,34.40
2018-07-08T16:24:38.513Z,34.40
2018-07-08T16:25:43.327Z,34.70
2018-07-08T16:26:48.859Z,35.40
2018-07-08T16:27:54.108Z,35.10
2018-07-08T16:29:00.096Z,35.00
2018-07-08T16:30:05.040Z,34.80
2018-07-08T16:31:11.740Z,34.70
2018-07-08T16:32:17.475Z,34.60
2018-07-08T16:33:22.384Z,34.60
2018-07-08T16:34:28.212Z,34.70
2018-07-08T16:35:34.346Z,34.70
2018-07-08T16:36:39.378Z,34.70
2018-07-08T16:37:45.202Z,34.80
2018-07-08T16:38:51.000Z,34.80
2018-07-08T16:39:58.182Z,35.20
2018-07-08T16:41:03.102Z,35.00
2018-07-08T16:42:07.809Z,35.10
2018-07-08T16:43:13.964Z,35.50
2018-07-08T16:44:20.094Z,35.00
2018-07-08T16:45:26.340Z,34.90
2018-07-08T16:46:31.441Z,34.80
2018-07-08T16:47:37.797Z,34.90
2018-07-08T16:48:43.418Z,35.00
2018-07-08T16:49:51.686Z,34.70
2018-07-08T16:50:57.360Z,34.70
2018-07-08T16:52:02.258Z,34.80
2018-07-08T16:53:08.269Z,35.10
2018-07-08T16:54:12.984Z,35.20
2018-07-08T16:55:18.110Z,35.50
2018-07-08T16:56:23.250Z,35.50
2018-07-08T16:57:29.326Z,35.00
2018-07-08T16:58:36.721Z,35.10
2018-07-08T16:59:42.821Z,34.80
2018-07-08T17:00:48.210Z,35.00
2018-07-08T17:01:55.726Z,35.10
2018-07-08T17:03:01.839Z,35.20
2018-07-08T17:04:08.372Z,35.60
2018-07-08T17:05:14.800Z,35.80
2018-07-08T17:06:20.402Z,35.50
2018-07-08T17:07:26.452Z,35.40
2018-07-08T17:09:46.696Z,35.90
2018-07-08T17:10:51.500Z,36.20
2018-07-08T17:11:57.749Z,36.30
2018-07-08T17:13:03.227Z,36.00
2018-07-08T17:14:08.841Z,35.80
2018-07-08T17:15:18.164Z,35.70
2018-07-08T17:16:24.826Z,35.60
2018-07-08T17:17:32.204Z,35.50
2018-07-08T17:18:37.452Z,35.70
2018-07-08T17:19:44.449Z,35.80
2018-07-08T17:20:52.620Z,35.80
2018-07-08T17:21:59.222Z,36.00
2018-07-08T17:23:05.063Z,36.80
2018-07-08T17:24:11.213Z,37.20
2018-07-08T17:25:16.548Z,36.50
2018-07-08T17:26:22.253Z,36.50
2018-07-08T17:27:28.637Z,36.70
2018-07-08T17:28:34.526Z,36.70
2018-07-08T17:29:40.647Z,36.80
2018-07-08T17:30:49.174Z,36.70
2018-07-08T17:31:57.808Z,36.70
2018-07-08T17:33:05.182Z,36.70
2018-07-08T17:34:10.781Z,36.90
2018-07-08T17:35:15.830Z,37.30
2018-07-08T17:36:21.390Z,37.10
2018-07-08T17:37:28.537Z,37.30
2018-07-08T17:38:35.721Z,37.30
2018-07-08T17:39:48.533Z,37.30
2018-07-08T17:40:55.898Z,37.40
2018-07-08T17:42:03.505Z,37.40
2018-07-08T17:43:08.341Z,37.50
2018-07-08T17:44:13.872Z,37.70
2018-07-08T17:45:19.844Z,37.90
2018-07-08T17:46:25.379Z,37.80
2018-07-08T17:47:32.091Z,37.70
2018-07-08T17:48:37.120Z,37.60
2018-07-08T17:49:42.762Z,37.50
2018-07-08T17:50:48.466Z,37.40
2018-07-08T17:51:53.497Z,37.50
2018-07-08T17:53:02.237Z,37.70
2018-07-08T17:54:09.208Z,37.70
2018-07-08T17:55:14.229Z,37.80
2018-07-08T17:56:20.103Z,37.90
2018-07-08T17:57:25.264Z,37.70
2018-07-08T17:58:30.380Z,37.70
2018-07-08T17:59:35.223Z,37.70
2018-07-08T18:00:40.207Z,37.80
2018-07-08T18:01:45.201Z,38.00
2018-07-08T18:02:51.212Z,38.10
2018-07-08T18:03:56.774Z,38.20
2018-07-08T18:05:02.453Z,38.30
2018-07-08T18:06:07.642Z,38.40
2018-07-08T18:07:12.469Z,38.40
2018-07-08T18:08:17.795Z,38.70
2018-07-08T18:09:23.819Z,38.60
2018-07-08T18:10:28.801Z,38.70
2018-07-08T18:11:35.428Z,39.20
2018-07-08T18:12:43.645Z,38.80
2018-07-08T18:13:49.337Z,38.80
2018-07-08T18:14:55.503Z,39.10
2018-07-08T18:16:00.369Z,38.80
2018-07-08T18:17:06.699Z,38.60
2018-07-08T18:18:11.440Z,38.70
2018-07-08T18:19:16.748Z,38.70
2018-07-08T18:20:24.089Z,38.80
2018-07-08T18:21:29.615Z,39.10
2018-07-08T18:22:35.701Z,39.00
2018-07-08T18:23:42.365Z,38.80
2018-07-08T18:24:49.934Z,38.80
2018-07-08T18:25:55.255Z,38.90
2018-07-08T18:27:00.745Z,39.00
2018-07-08T18:28:05.848Z,39.00
2018-07-08T18:29:12.279Z,39.10
2018-07-08T18:30:17.000Z,39.10
2018-07-08T18:31:22.839Z,39.20
2018-07-08T18:32:28.101Z,39.20
2018-07-08T18:33:34.115Z,39.30
2018-07-08T18:34:39.451Z,39.20
2018-07-08T18:35:44.543Z,39.30
2018-07-08T18:36:50.660Z,39.40
2018-07-08T18:37:55.635Z,39.50
2018-07-08T18:39:01.251Z,39.80
2018-07-08T18:40:07.391Z,39.70
2018-07-08T18:41:14.312Z,39.70
2018-07-08T18:42:20.621Z,39.80
2018-07-08T18:43:26.153Z,40.00
2018-07-08T18:44:32.178Z,39.90
2018-07-08T18:45:37.199Z,40.00
2018-07-08T18:46:43.832Z,39.70
2018-07-08T18:47:50.456Z,39.50
2018-07-08T18:48:56.644Z,39.70
2018-07-08T18:50:03.023Z,39.80
2018-07-08T18:51:09.731Z,39.80
2018-07-08T18:52:15.485Z,39.70
2018-07-08T18:53:22.221Z,39.80
2018-07-08T18:54:27.629Z,40.00
2018-07-08T18:55:33.629Z,39.90
2018-07-08T18:56:40.209Z,39.80
2018-07-08T18:57:45.327Z,40.00
2018-07-08T18:58:49.956Z,39.70
2018-07-08T18:59:54.705Z,39.80
2018-07-08T19:01:05.664Z,39.80
2018-07-08T19:02:15.184Z,39.80
2018-07-08T19:03:23.237Z,39.70
2018-07-08T19:04:43.658Z,39.90
2018-07-08T19:05:53.488Z,39.90
2018-07-08T19:06:59.293Z,39.90
2018-07-08T19:08:17.553Z,39.90
2018-07-08T19:09:23.326Z,40.10
2018-07-08T19:10:35.196Z,40.00
2018-07-08T19:11:41.658Z,40.10
2018-07-08T19:12:48.090Z,40.00
2018-07-08T19:13:54.811Z,40.30
2018-07-08T19:15:01.685Z,40.10
2018-07-08T19:16:07.210Z,40.10
2018-07-08T19:17:12.614Z,40.30
2018-07-08T19:18:19.006Z,40.10
2018-07-08T19:19:28.293Z,40.20
2018-07-08T19:20:34.192Z,40.30
2018-07-08T19:21:40.453Z,40.30
2018-07-08T19:22:46.136Z,40.20
2018-07-08T19:23:51.367Z,40.40
2018-07-08T19:24:57.096Z,40.50
2018-07-08T19:26:04.031Z,40.40
2018-07-08T19:27:09.159Z,40.60
2018-07-08T19:28:16.958Z,40.60
2018-07-08T19:29:22.652Z,40.60
2018-07-08T19:30:27.631Z,40.60
2018-07-08T19:31:34.496Z,40.80
2018-07-08T19:32:40.182Z,40.70
2018-07-08T19:33:46.631Z,40.70
2018-07-08T19:34:53.306Z,40.70
2018-07-08T19:35:58.744Z,40.80
2018-07-08T19:37:04.598Z,40.80
2018-07-08T19:38:09.936Z,40.70
2018-07-08T19:39:17.083Z,40.60
2018-07-08T19:40:24.623Z,40.70
2018-07-08T19:41:29.226Z,41.40
2018-07-08T19:42:34.178Z,40.90
2018-07-08T19:43:39.040Z,41.00
2018-07-08T19:44:43.854Z,41.00
2018-07-08T19:45:48.776Z,41.00
2018-07-08T19:46:53.406Z,41.00
2018-07-08T19:47:58.491Z,41.30
2018-07-08T19:50:09.192Z,41.30
2018-07-08T19:51:14.212Z,41.20
2018-07-08T19:52:19.301Z,41.00
2018-07-08T19:53:24.650Z,41.00
2018-07-08T19:54:29.376Z,41.10
2018-07-08T19:55:34.583Z,41.20
2018-07-08T19:56:39.367Z,41.30
2018-07-08T19:57:44.295Z,40.80
2018-07-08T19:58:49.309Z,41.50
2018-07-08T19:59:55.150Z,41.50
2018-07-08T20:00:59.998Z,41.50
2018-07-08T20:02:05.219Z,41.60
2018-07-08T20:03:10.112Z,41.60
2018-07-08T20:04:15.660Z,41.60
2018-07-08T20:05:21.687Z,41.80
2018-07-08T20:06:37.364Z,41.60
2018-07-08T20:07:42.544Z,41.70
2018-07-08T20:08:49.546Z,41.80
2018-07-08T20:09:56.359Z,41.90
2018-07-08T20:11:01.561Z,41.80
2018-07-08T20:12:06.390Z,42.00
2018-07-08T20:13:11.288Z,41.90
2018-07-08T20:14:16.208Z,41.90
2018-07-08T20:15:22.916Z,42.00
2018-07-08T20:16:28.455Z,42.10
2018-07-08T20:17:33.892Z,42.10
2018-07-08T20:18:39.211Z,42.10
2018-07-08T20:19:46.393Z,42.20
2018-07-08T20:20:51.365Z,42.20
2018-07-08T20:21:56.326Z,42.30
2018-07-08T20:23:02.309Z,42.30
2018-07-08T20:24:09.340Z,42.40
2018-07-08T20:25:18.809Z,42.60
2018-07-08T20:26:23.913Z,42.50
2018-07-08T20:27:29.200Z,42.60
2018-07-08T20:28:34.631Z,42.70
2018-07-08T20:29:39.565Z,42.60
2018-07-08T20:30:44.978Z,42.70
2018-07-08T20:31:51.209Z,42.80
2018-07-08T20:32:56.220Z,43.00
2018-07-08T20:34:01.813Z,43.10
2018-07-08T20:35:07.934Z,43.70
2018-07-08T20:36:14.109Z,42.90
2018-07-08T20:37:20.636Z,43.20
2018-07-08T20:38:30.761Z,43.20
2018-07-08T20:39:36.193Z,43.20
2018-07-08T20:40:42.229Z,43.20
2018-07-08T20:41:47.651Z,43.30
2018-07-08T20:42:53.788Z,43.30
2018-07-08T20:44:02.643Z,43.60
2018-07-08T20:45:08.478Z,43.40
2018-07-08T20:46:13.457Z,43.50
2018-07-08T20:47:19.069Z,43.70
2018-07-08T20:48:25.859Z,43.80
2018-07-08T20:49:32.761Z,43.90
2018-07-08T20:50:41.372Z,43.90
2018-07-08T20:51:46.658Z,44.20
2018-07-08T20:52:53.083Z,44.00
2018-07-08T20:53:58.112Z,44.30
2018-07-08T20:55:05.330Z,44.20
2018-07-08T20:56:10.093Z,44.30
2018-07-08T20:57:16.125Z,44.30
2018-07-08T20:58:22.584Z,44.40
2018-07-08T20:59:28.217Z,44.50
2018-07-08T21:00:36.265Z,44.50
2018-07-08T21:01:45.623Z,44.60
2018-07-08T21:02:54.662Z,44.70
2018-07-08T21:04:00.825Z,44.80
2018-07-08T21:05:06.887Z,44.90
2018-07-08T21:06:12.660Z,44.90
2018-07-08T21:07:17.432Z,45.00
2018-07-08T21:08:23.768Z,45.00
2018-07-08T21:09:29.180Z,45.20
2018-07-08T21:10:35.395Z,45.40
2018-07-08T21:11:41.226Z,45.30
2018-07-08T21:12:55.095Z,45.30
2018-07-08T21:15:15.344Z,45.30
2018-07-08T21:16:23.214Z,45.50
2018-07-08T21:17:29.971Z,45.60
2018-07-08T21:18:39.111Z,45.60
2018-07-08T21:19:47.196Z,45.80
2018-07-08T21:20:53.300Z,45.90
2018-07-08T21:21:59.386Z,45.90
2018-07-08T21:23:05.088Z,46.00
2018-07-08T21:24:10.700Z,46.10
2018-07-08T21:25:18.044Z,46.10
2018-07-08T21:26:23.788Z,46.20
2018-07-08T21:27:28.631Z,46.30
2018-07-08T21:28:34.260Z,46.40
2018-07-08T21:29:41.387Z,46.40
2018-07-08T21:30:47.067Z,46.50
2018-07-08T21:31:54.657Z,46.60
2018-07-08T21:32:59.756Z,46.70
2018-07-08T21:34:06.174Z,46.60
2018-07-08T21:35:11.813Z,46.80
2018-07-08T21:36:16.269Z,46.80
2018-07-08T21:37:21.598Z,46.90
2018-07-08T21:38:27.860Z,47.20
2018-07-08T21:39:32.501Z,47.20
2018-07-08T21:40:37.511Z,47.20
2018-07-08T21:41:42.841Z,47.30
2018-07-08T21:42:47.445Z,47.50
2018-07-08T21:43:52.419Z,47.60
2018-07-08T21:44:57.797Z,47.60
2018-07-08T21:46:03.290Z,47.90
2018-07-08T21:47:10.105Z,48.00
2018-07-08T21:48:14.848Z,48.00
2018-07-08T21:49:19.844Z,48.10
2018-07-08T21:50:25.381Z,48.20
2018-07-08T21:51:29.994Z,48.40
2018-07-08T21:52:35.220Z,48.40
2018-07-08T21:53:41.835Z,48.80
2018-07-08T21:54:47.829Z,48.70
2018-07-08T21:55:52.918Z,48.70
2018-07-08T21:56:58.188Z,48.80
2018-07-08T21:58:02.726Z,48.90
2018-07-08T21:59:09.337Z,49.10
2018-07-08T22:00:16.453Z,49.20
2018-07-08T22:01:23.769Z,49.90
2018-07-08T22:02:29.574Z,49.40
2018-07-08T22:03:34.742Z,49.50
2018-07-08T22:04:40.270Z,49.70
2018-07-08T22:05:46.220Z,49.80
2018-07-08T22:06:51.279Z,49.80
2018-07-08T22:08:01.759Z,49.90
2018-07-08T22:09:08.092Z,49.90
2018-07-08T22:10:14.055Z,50.00
2018-07-08T22:11:20.214Z,50.80
2018-07-08T22:12:24.941Z,50.30
2018-07-08T22:13:31.217Z,50.50
2018-07-08T22:14:38.094Z,50.50
2018-07-08T22:15:43.000Z,50.60
2018-07-08T22:16:49.207Z,50.60
2018-07-08T22:17:55.926Z,50.80
2018-07-08T22:19:00.635Z,50.90
2018-07-08T22:20:06.651Z,51.10
2018-07-08T22:21:11.568Z,51.20
2018-07-08T22:22:17.818Z,51.30
2018-07-08T22:23:23.220Z,51.30
2018-07-08T22:24:29.626Z,52.00
2018-07-08T22:25:35.281Z,51.50
2018-07-08T22:26:39.967Z,51.70
2018-07-08T22:27:45.285Z,51.70
2018-07-08T22:28:50.353Z,51.80
2018-07-08T22:29:55.452Z,51.90
2018-07-08T22:31:00.499Z,52.10
2018-07-08T22:32:07.213Z,52.10
2018-07-08T22:33:13.935Z,52.20
2018-07-08T22:34:21.532Z,52.10
2018-07-08T22:35:27.625Z,52.30
2018-07-08T22:36:32.344Z,52.40
2018-07-08T22:37:38.112Z,52.60
2018-07-08T22:38:44.200Z,52.70
2018-07-08T22:39:50.629Z,52.80
2018-07-08T22:40:56.196Z,53.00
2018-07-08T22:42:01.739Z,53.00
2018-07-08T22:43:06.928Z,53.10
2018-07-08T22:44:13.167Z,53.10
2018-07-08T22:45:18.109Z,53.10
2018-07-08T22:46:25.378Z,53.30
2018-07-08T22:47:33.372Z,53.40
2018-07-08T22:48:41.770Z,53.40
2018-07-08T22:49:46.486Z,53.60
2018-07-08T22:50:52.186Z,53.70
2018-07-08T22:51:57.719Z,53.70
2018-07-08T22:53:03.580Z,53.80
2018-07-08T22:54:08.133Z,53.80
2018-07-08T22:55:13.718Z,53.90
2018-07-08T22:56:20.197Z,54.00
2018-07-08T22:57:24.861Z,54.10
2018-07-08T22:58:29.830Z,54.20
2018-07-08T22:59:44.082Z,54.20
2018-07-08T23:01:00.511Z,54.20
2018-07-08T23:02:16.326Z,54.40
2018-07-08T23:05:32.443Z,54.30
2018-07-08T23:06:37.234Z,54.50
2018-07-08T23:08:48.345Z,55.30
2018-07-08T23:09:53.653Z,54.80
2018-07-08T23:10:58.877Z,54.80
2018-07-08T23:12:04.217Z,54.90
2018-07-08T23:13:10.280Z,54.90
2018-07-08T23:14:15.688Z,55.00
2018-07-08T23:15:20.268Z,55.20
2018-07-08T23:16:25.855Z,55.30
2018-07-08T23:17:31.182Z,55.40
2018-07-08T23:18:36.826Z,55.50
2018-07-08T23:19:41.495Z,55.60
2018-07-08T23:20:46.816Z,55.70
2018-07-08T23:21:51.450Z,55.90
2018-07-08T23:22:58.998Z,55.90
2018-07-08T23:24:05.079Z,56.20
2018-07-08T23:25:10.759Z,56.10
2018-07-08T23:26:16.057Z,56.20
2018-07-08T23:27:21.084Z,56.30
2018-07-08T23:28:25.618Z,56.30
2018-07-08T23:29:31.077Z,56.30
2018-07-08T23:30:36.401Z,56.40
2018-07-08T23:31:43.235Z,56.30
2018-07-08T23:32:48.212Z,56.50
2018-07-08T23:33:53.624Z,56.70
2018-07-08T23:34:58.571Z,56.70
2018-07-08T23:36:03.974Z,56.80
2018-07-08T23:37:08.727Z,56.90
2018-07-08T23:38:13.547Z,56.90
2018-07-08T23:39:18.060Z,56.90
2018-07-08T23:40:23.408Z,56.90
2018-07-08T23:41:29.480Z,57.20
2018-07-08T23:42:34.971Z,57.10
2018-07-08T23:43:41.268Z,57.00
2018-07-08T23:44:45.912Z,57.20
2018-07-08T23:46:57.064Z,57.30
2018-07-08T23:48:02.408Z,57.30
2018-07-08T23:49:09.942Z,57.20
2018-07-08T23:50:15.371Z,57.40
2018-07-08T23:51:21.112Z,57.40
2018-07-08T23:53:32.364Z,56.90
2018-07-08T23:54:37.356Z,57.50
2018-07-08T23:55:42.314Z,57.70
2018-07-08T23:56:47.404Z,57.70
2018-07-08T23:57:54.142Z,57.70
2018-07-08T23:58:59.527Z,58.00
